createdAt,value
2019-03-23T00:00:18.869Z,11.67
2019-03-23T00:02:47.417Z,12.60
2019-03-23T00:05:16.084Z,12.27
2019-03-23T00:07:44.719Z,12.53
2019-03-23T00:10:13.577Z,11.23
2019-03-23T00:12:42.216Z,12.00
2019-03-23T00:15:11.995Z,12.07
2019-03-23T00:17:40.612Z,11.87
2019-03-23T00:20:09.913Z,11.43
2019-03-23T00:22:38.545Z,11.13
2019-03-23T00:25:07.218Z,11.60
2019-03-23T00:27:35.941Z,12.17
2019-03-23T00:30:10.450Z,11.73
2019-03-23T00:32:58.357Z,12.10
2019-03-23T00:35:26.838Z,11.50
2019-03-23T00:37:55.466Z,12.23
2019-03-23T00:40:24.100Z,10.83
2019-03-23T00:42:52.638Z,11.40
2019-03-23T00:45:21.267Z,11.30
2019-03-23T00:47:49.962Z,11.27
2019-03-23T00:50:18.517Z,11.70
2019-03-23T00:52:47.061Z,11.40
2019-03-23T00:55:15.802Z,11.23
2019-03-23T00:57:44.409Z,11.30
2019-03-23T01:00:13.745Z,10.93
2019-03-23T01:02:42.353Z,10.73
2019-03-23T01:05:11.301Z,10.50
2019-03-23T01:07:40.038Z,10.87
2019-03-23T01:10:10.900Z,10.23
2019-03-23T01:12:39.874Z,10.40
2019-03-23T01:15:10.954Z,10.50
2019-03-23T01:17:40.023Z,10.07
2019-03-23T01:20:11.290Z,9.73
2019-03-23T01:22:39.858Z,10.47
2019-03-23T01:25:10.195Z,10.50
2019-03-23T01:27:38.775Z,10.87
2019-03-23T01:30:12.575Z,10.40
2019-03-23T01:32:41.305Z,10.60
2019-03-23T01:35:10.417Z,10.90
2019-03-23T01:37:39.085Z,11.13
2019-03-23T01:40:08.857Z,10.47
2019-03-23T01:42:37.493Z,10.47
2019-03-23T01:45:10.982Z,10.73
2019-03-23T01:47:39.531Z,10.93
2019-03-23T01:50:09.517Z,10.87
2019-03-23T01:52:38.250Z,11.80
2019-03-23T01:55:08.205Z,11.03
2019-03-23T01:57:36.843Z,11.03
2019-03-23T02:00:10.251Z,11.20
2019-03-23T02:02:38.806Z,11.00
2019-03-23T02:05:08.902Z,10.83
2019-03-23T02:07:37.587Z,10.77
2019-03-23T02:10:10.839Z,11.43
2019-03-23T02:12:39.499Z,11.27
2019-03-23T02:15:10.286Z,11.47
2019-03-23T02:17:38.902Z,11.57
2019-03-23T02:20:14.490Z,11.30
2019-03-23T02:22:43.122Z,11.07
2019-03-23T02:25:11.905Z,10.93
2019-03-23T02:27:40.511Z,11.40
2019-03-23T02:30:11.280Z,11.00
2019-03-23T02:32:39.955Z,11.30
2019-03-23T02:35:09.454Z,11.37
2019-03-23T02:37:38.130Z,10.97
2019-03-23T02:40:08.920Z,11.50
2019-03-23T02:42:37.503Z,11.37
2019-03-23T02:45:11.182Z,10.77
2019-03-23T02:47:39.765Z,11.40
2019-03-23T02:50:10.057Z,11.43
2019-03-23T02:52:38.706Z,11.87
2019-03-23T02:55:09.113Z,11.60
2019-03-23T02:57:37.797Z,11.47
2019-03-23T03:00:12.437Z,11.40
2019-03-23T03:02:40.913Z,11.27
2019-03-23T03:05:10.244Z,10.70
2019-03-23T03:07:42.313Z,10.90
2019-03-23T03:10:13.999Z,11.27
2019-03-23T03:12:42.597Z,10.77
2019-03-23T03:15:11.445Z,10.70
2019-03-23T03:17:40.084Z,11.30
2019-03-23T03:20:10.351Z,10.27
2019-03-23T03:22:38.948Z,11.40
2019-03-23T03:25:08.209Z,10.60
2019-03-23T03:27:36.925Z,10.53
2019-03-23T03:30:07.421Z,11.33
2019-03-23T03:32:35.967Z,10.37
2019-03-23T03:35:05.666Z,10.97
2019-03-23T03:37:34.262Z,10.53
2019-03-23T03:40:02.883Z,9.90
2019-03-23T03:42:31.431Z,11.33
2019-03-23T03:44:59.994Z,9.97
2019-03-23T03:47:28.635Z,10.70
2019-03-23T03:49:57.324Z,10.60
2019-03-23T03:52:25.874Z,10.67
2019-03-23T03:54:54.588Z,11.47
2019-03-23T03:57:23.161Z,10.53
2019-03-23T03:59:51.842Z,9.97
2019-03-23T04:02:20.555Z,11.17
2019-03-23T04:04:49.170Z,10.50
2019-03-23T04:07:17.807Z,11.07
2019-03-23T04:09:46.516Z,10.60
2019-03-23T04:12:15.153Z,10.50
2019-03-23T04:14:43.767Z,11.03
2019-03-23T04:17:12.339Z,9.97
2019-03-23T04:19:40.953Z,10.37
2019-03-23T04:22:09.546Z,10.90
2019-03-23T04:24:38.080Z,10.77
2019-03-23T04:27:06.771Z,10.47
2019-03-23T04:29:35.380Z,10.57
2019-03-23T04:32:04.208Z,10.87
2019-03-23T04:34:32.873Z,10.57
2019-03-23T04:37:01.431Z,11.10
2019-03-23T04:39:29.984Z,10.67
2019-03-23T04:41:58.674Z,10.53
2019-03-23T04:44:27.156Z,10.53
2019-03-23T04:46:55.693Z,10.23
2019-03-23T04:49:24.418Z,10.20
2019-03-23T04:51:52.992Z,10.37
2019-03-23T04:54:21.642Z,9.77
2019-03-23T04:56:50.262Z,10.83
2019-03-23T04:59:18.809Z,9.80
2019-03-23T05:01:47.533Z,10.60
2019-03-23T05:04:16.161Z,9.47
2019-03-23T05:06:44.832Z,9.30
2019-03-23T05:09:13.545Z,9.93
2019-03-23T05:11:42.025Z,9.60
2019-03-23T05:14:10.617Z,9.87
2019-03-23T05:16:39.249Z,9.53
2019-03-23T05:19:07.721Z,9.23
2019-03-23T05:21:36.336Z,10.00
2019-03-23T05:24:04.939Z,9.70
2019-03-23T05:26:33.567Z,10.20
2019-03-23T05:29:02.098Z,9.60
2019-03-23T05:31:30.827Z,9.00
2019-03-23T05:33:59.442Z,10.20
2019-03-23T05:36:28.176Z,9.60
2019-03-23T05:38:56.706Z,10.00
2019-03-23T05:41:25.232Z,9.20
2019-03-23T05:43:53.803Z,10.30
2019-03-23T05:46:22.377Z,10.67
2019-03-23T05:48:51.208Z,10.53
2019-03-23T05:51:19.811Z,9.63
2019-03-23T05:53:48.814Z,10.57
2019-03-23T05:56:17.718Z,10.23
2019-03-23T05:58:50.992Z,10.33
2019-03-23T06:01:19.606Z,9.60
2019-03-23T06:03:48.171Z,9.70
2019-03-23T06:06:16.691Z,9.77
2019-03-23T06:08:54.463Z,10.10
2019-03-23T06:11:15.540Z,9.97
2019-03-23T06:13:44.103Z,9.80
2019-03-23T06:16:12.785Z,10.33
2019-03-23T06:18:41.344Z,9.17
2019-03-23T06:21:09.834Z,10.00
2019-03-23T06:23:38.337Z,10.03
2019-03-23T06:26:06.898Z,9.43
2019-03-23T06:28:35.672Z,9.40
2019-03-23T06:31:04.166Z,9.93
2019-03-23T06:33:35.719Z,9.57
2019-03-23T06:36:04.513Z,10.03
2019-03-23T06:38:33.129Z,9.53
2019-03-23T06:41:01.619Z,9.43
2019-03-23T06:43:30.225Z,9.10
2019-03-23T06:45:58.717Z,9.40
2019-03-23T06:48:27.171Z,8.77
2019-03-23T06:50:55.818Z,9.43
2019-03-23T06:53:24.389Z,9.07
2019-03-23T06:55:52.954Z,8.67
2019-03-23T06:58:21.569Z,8.73
2019-03-23T07:00:50.188Z,8.83
2019-03-23T07:03:18.916Z,8.83
2019-03-23T07:05:47.518Z,8.50
2019-03-23T07:08:16.123Z,8.77
2019-03-23T07:10:45.223Z,9.13
2019-03-23T07:13:13.820Z,8.63
2019-03-23T07:15:42.549Z,9.27
2019-03-23T07:18:11.166Z,9.47
2019-03-23T07:20:39.823Z,9.73
2019-03-23T07:23:08.424Z,8.70
2019-03-23T07:25:37.030Z,9.13
2019-03-23T07:28:07.886Z,9.27
2019-03-23T07:30:35.850Z,9.47
2019-03-23T07:33:06.390Z,9.53
2019-03-23T07:35:35.949Z,9.00
2019-03-23T07:38:04.601Z,9.67
2019-03-23T07:40:33.313Z,8.93
2019-03-23T07:43:01.991Z,9.53
2019-03-23T07:45:30.619Z,9.77
2019-03-23T07:47:59.275Z,9.57
2019-03-23T07:50:27.986Z,9.20
2019-03-23T07:52:56.909Z,9.00
2019-03-23T07:55:25.610Z,8.90
2019-03-23T07:57:54.759Z,8.97
2019-03-23T08:00:23.435Z,9.07
2019-03-23T08:02:52.604Z,9.00
2019-03-23T08:05:22.411Z,8.50
2019-03-23T08:07:51.071Z,9.93
2019-03-23T08:10:33.702Z,9.60
2019-03-23T08:13:04.013Z,9.10
2019-03-23T08:15:33.419Z,10.37
2019-03-23T08:18:02.128Z,10.50
2019-03-23T08:20:31.266Z,10.67
2019-03-23T08:23:01.083Z,10.03
2019-03-23T08:25:29.864Z,12.30
2019-03-23T08:27:58.536Z,12.80
2019-03-23T08:30:27.163Z,13.67
2019-03-23T08:32:55.789Z,14.37
2019-03-23T08:35:24.499Z,14.17
2019-03-23T08:37:53.390Z,14.07
2019-03-23T08:40:22.084Z,14.87
2019-03-23T08:42:50.902Z,16.03
2019-03-23T08:45:19.617Z,15.80
2019-03-23T08:47:48.318Z,14.30
2019-03-23T08:50:16.890Z,14.80
2019-03-23T08:52:50.177Z,15.37
2019-03-23T08:55:18.733Z,15.90
2019-03-23T08:57:48.191Z,15.20
2019-03-23T09:00:21.631Z,16.77
2019-03-23T09:02:56.645Z,16.07
2019-03-23T09:05:26.716Z,16.07
2019-03-23T09:07:55.236Z,18.03
2019-03-23T09:10:23.805Z,19.47
2019-03-23T09:12:52.455Z,20.27
2019-03-23T09:15:21.192Z,20.00
2019-03-23T09:17:49.777Z,20.00
2019-03-23T09:20:18.392Z,20.23
2019-03-23T09:22:47.038Z,20.80
2019-03-23T09:25:15.748Z,20.37
2019-03-23T09:27:44.266Z,20.60
2019-03-23T09:30:13.577Z,20.47
2019-03-23T09:32:42.281Z,21.03
2019-03-23T09:35:10.970Z,20.43
2019-03-23T09:37:39.698Z,19.47
2019-03-23T09:40:10.932Z,21.13
2019-03-23T09:42:38.633Z,20.77
2019-03-23T09:45:10.475Z,21.47
2019-03-23T09:47:39.914Z,21.10
2019-03-23T09:50:10.553Z,20.67
2019-03-23T09:52:39.042Z,19.87
2019-03-23T09:55:08.198Z,21.27
2019-03-23T09:57:36.877Z,21.07
2019-03-23T10:00:11.091Z,21.87
2019-03-23T10:02:39.791Z,23.10
2019-03-23T10:05:09.297Z,22.80
2019-03-23T10:07:37.977Z,23.47
2019-03-23T10:10:07.482Z,22.20
2019-03-23T10:12:36.135Z,23.10
2019-03-23T10:15:09.065Z,23.53
2019-03-23T10:17:37.756Z,23.43
2019-03-23T10:20:08.602Z,21.80
2019-03-23T10:22:37.174Z,22.73
2019-03-23T10:25:07.122Z,23.70
2019-03-23T10:27:35.883Z,23.63
2019-03-23T10:30:07.265Z,24.13
2019-03-23T10:32:35.842Z,24.57
2019-03-23T10:35:06.663Z,24.90
2019-03-23T10:37:41.918Z,24.67
2019-03-23T10:40:11.775Z,24.17
2019-03-23T10:42:40.482Z,25.33
2019-03-23T10:45:10.376Z,24.43
2019-03-23T10:47:39.095Z,23.47
2019-03-23T10:50:08.025Z,24.57
2019-03-23T10:52:36.657Z,24.30
2019-03-23T10:55:08.129Z,25.50
2019-03-23T10:57:36.857Z,25.33
2019-03-23T11:00:08.702Z,23.23
2019-03-23T11:02:37.341Z,22.83
2019-03-23T11:05:07.709Z,23.00
2019-03-23T11:07:36.486Z,22.57
2019-03-23T11:10:08.083Z,21.57
2019-03-23T11:12:38.300Z,25.33
2019-03-23T11:15:08.436Z,24.10
2019-03-23T11:17:37.064Z,21.52
2019-03-23T11:20:07.749Z,19.37
2019-03-23T11:22:36.740Z,22.23
2019-03-23T11:25:07.463Z,22.60
2019-03-23T11:27:36.374Z,28.17
2019-03-23T11:30:10.705Z,22.80
2019-03-23T11:32:39.370Z,25.53
2019-03-23T11:35:08.837Z,23.33
2019-03-23T11:37:37.686Z,23.13
2019-03-23T11:40:10.371Z,23.27
2019-03-23T11:42:48.864Z,19.70
2019-03-23T11:45:10.785Z,19.07
2019-03-23T11:47:39.344Z,20.15
2019-03-23T11:50:09.364Z,22.45
2019-03-23T11:52:37.981Z,25.77
2019-03-23T11:55:08.081Z,27.95
2019-03-23T11:57:36.761Z,27.45
2019-03-23T12:00:11.278Z,25.35
2019-03-23T12:02:41.132Z,27.20
2019-03-23T12:05:09.924Z,28.00
2019-03-23T12:07:38.589Z,26.95
2019-03-23T12:10:12.359Z,27.27
2019-03-23T12:12:41.149Z,26.55
2019-03-23T12:15:12.080Z,26.23
2019-03-23T12:17:41.221Z,28.00
2019-03-23T12:20:10.224Z,27.45
2019-03-23T12:22:38.942Z,26.93
2019-03-23T12:25:37.879Z,25.48
2019-03-23T12:28:08.256Z,26.07
2019-03-23T12:30:44.807Z,25.92
2019-03-23T12:33:22.083Z,25.00
2019-03-23T12:35:59.092Z,26.80
2019-03-23T12:38:30.270Z,26.12
2019-03-23T12:41:11.235Z,28.30
2019-03-23T12:43:37.939Z,28.17
2019-03-23T12:46:18.370Z,25.70
2019-03-23T12:48:57.286Z,24.80
2019-03-23T12:51:57.907Z,23.80
2019-03-23T12:54:37.533Z,24.07
2019-03-23T12:57:14.291Z,24.05
2019-03-23T12:59:53.254Z,23.70
2019-03-23T13:02:22.303Z,26.30
2019-03-23T13:04:51.245Z,25.72
2019-03-23T13:07:22.719Z,29.92
2019-03-23T13:09:51.509Z,26.52
2019-03-23T13:12:20.984Z,24.25
2019-03-23T13:14:53.605Z,24.12
2019-03-23T13:17:22.794Z,23.45
2019-03-23T13:19:51.645Z,25.30
2019-03-23T13:22:20.947Z,25.32
2019-03-23T13:24:52.890Z,24.87
2019-03-23T13:27:22.999Z,24.50
2019-03-23T13:29:54.132Z,26.20
2019-03-23T13:32:23.487Z,27.13
2019-03-23T13:34:54.717Z,27.50
2019-03-23T13:37:24.570Z,28.73
2019-03-23T13:39:54.386Z,28.75
2019-03-23T13:42:23.622Z,27.22
2019-03-23T13:44:52.788Z,27.37
2019-03-23T13:47:22.611Z,26.55
2019-03-23T13:49:51.977Z,27.25
2019-03-23T13:52:21.409Z,28.00
2019-03-23T13:54:51.427Z,27.77
2019-03-23T13:57:21.475Z,28.67
2019-03-23T13:59:50.485Z,27.60
2019-03-23T14:02:19.762Z,28.53
2019-03-23T14:04:50.330Z,27.97
2019-03-23T14:07:19.491Z,25.77
2019-03-23T14:09:48.474Z,27.90
2019-03-23T14:12:17.971Z,28.30
2019-03-23T14:14:46.770Z,28.17
2019-03-23T14:17:16.100Z,26.60
2019-03-23T14:19:44.899Z,27.23
2019-03-23T14:22:14.707Z,26.57
2019-03-23T14:24:43.295Z,27.30
2019-03-23T14:27:12.151Z,26.03
2019-03-23T14:29:41.486Z,25.47
2019-03-23T14:32:10.188Z,25.37
2019-03-23T14:34:40.376Z,24.23
2019-03-23T14:37:09.465Z,24.50
2019-03-23T14:39:38.768Z,24.73
2019-03-23T14:42:07.606Z,25.33
2019-03-23T14:44:36.613Z,23.37
2019-03-23T14:47:05.383Z,23.50
2019-03-23T14:49:43.045Z,23.07
2019-03-23T14:52:16.090Z,24.93
2019-03-23T14:54:45.161Z,24.50
2019-03-23T14:57:21.642Z,23.17
2019-03-23T14:59:57.100Z,23.20
2019-03-23T15:02:32.667Z,24.57
2019-03-23T15:05:20.075Z,23.57
2019-03-23T15:07:52.043Z,23.43
2019-03-23T15:10:25.048Z,22.87
2019-03-23T15:15:58.130Z,24.10
2019-03-23T15:18:26.686Z,24.23
2019-03-23T15:20:55.317Z,24.90
2019-03-23T15:23:23.917Z,26.67
2019-03-23T15:25:52.640Z,26.93
2019-03-23T15:28:21.206Z,25.87
2019-03-23T15:30:50.878Z,28.70
2019-03-23T15:33:19.548Z,30.20
2019-03-23T15:35:48.962Z,28.17
2019-03-23T15:38:17.662Z,29.77
2019-03-23T15:40:46.379Z,30.57
2019-03-23T15:43:15.055Z,30.40
2019-03-23T15:45:43.869Z,31.33
2019-03-23T15:48:12.482Z,31.03
2019-03-23T15:50:41.029Z,30.83
2019-03-23T15:53:11.269Z,30.87
2019-03-23T15:55:39.921Z,28.47
2019-03-23T15:58:08.718Z,30.47
2019-03-23T16:00:37.374Z,29.97
2019-03-23T16:03:06.110Z,30.30
2019-03-23T16:05:35.746Z,30.17
2019-03-23T16:08:04.467Z,29.20
2019-03-23T16:10:33.029Z,29.23
2019-03-23T16:13:01.621Z,29.83
2019-03-23T16:15:30.182Z,27.63
2019-03-23T16:17:58.978Z,29.53
2019-03-23T16:20:27.533Z,28.57
2019-03-23T16:22:56.138Z,28.30
2019-03-23T16:25:24.749Z,27.23
2019-03-23T16:27:53.349Z,28.23
2019-03-23T16:30:29.913Z,28.33
2019-03-23T16:32:58.554Z,26.63
2019-03-23T16:35:27.121Z,27.13
2019-03-23T16:37:55.603Z,28.50
2019-03-23T16:40:24.154Z,28.67
2019-03-23T16:42:52.813Z,29.83
2019-03-23T16:45:21.480Z,28.93
2019-03-23T16:47:50.170Z,26.87
2019-03-23T16:50:18.807Z,29.67
2019-03-23T16:52:47.455Z,29.13
2019-03-23T16:55:16.208Z,29.00
2019-03-23T16:57:44.766Z,29.67
2019-03-23T17:00:14.678Z,28.63
2019-03-23T17:02:43.365Z,28.63
2019-03-23T17:05:15.080Z,28.83
2019-03-23T17:07:49.932Z,31.23
2019-03-23T17:10:18.172Z,30.03
2019-03-23T17:12:55.063Z,29.70
2019-03-23T17:15:17.846Z,29.67
2019-03-23T17:17:48.029Z,30.50
2019-03-23T17:20:18.902Z,30.30
2019-03-23T17:22:47.642Z,30.00
2019-03-23T17:25:18.907Z,30.37
2019-03-23T17:27:47.995Z,31.57
2019-03-23T17:30:17.811Z,30.40
2019-03-23T17:32:46.539Z,31.00
2019-03-23T17:35:15.097Z,30.77
2019-03-23T17:37:43.761Z,32.40
2019-03-23T17:40:12.653Z,31.57
2019-03-23T17:42:41.535Z,32.00
2019-03-23T17:45:10.945Z,30.40
2019-03-23T17:47:39.645Z,31.40
2019-03-23T17:50:08.320Z,31.20
2019-03-23T17:52:39.887Z,31.50
2019-03-23T17:55:08.673Z,34.30
2019-03-23T17:57:37.369Z,33.30
2019-03-23T18:00:10.519Z,32.73
2019-03-23T18:02:39.097Z,31.30
2019-03-23T18:05:08.351Z,34.17
2019-03-23T18:07:38.229Z,32.40
2019-03-23T18:10:07.917Z,31.80
2019-03-23T18:12:36.717Z,32.53
2019-03-23T18:15:09.680Z,31.63
2019-03-23T18:17:38.395Z,31.97
2019-03-23T18:20:08.090Z,32.77
2019-03-23T18:22:36.805Z,32.50
2019-03-23T18:25:07.065Z,32.30
2019-03-23T18:27:36.171Z,30.70
2019-03-23T18:30:16.748Z,32.83
2019-03-23T18:32:45.381Z,32.00
2019-03-23T18:35:14.007Z,35.60
2019-03-23T18:37:42.716Z,35.87
2019-03-23T18:40:11.440Z,32.47
2019-03-23T18:42:39.985Z,35.47
2019-03-23T18:45:09.407Z,35.50
2019-03-23T18:47:38.047Z,35.37
2019-03-23T18:50:07.424Z,33.73
2019-03-23T18:52:36.327Z,34.13
2019-03-23T18:55:06.445Z,33.40
2019-03-23T18:57:35.114Z,33.40
2019-03-23T19:00:07.661Z,34.23
2019-03-23T19:02:36.234Z,35.90
2019-03-23T19:05:05.479Z,36.10
2019-03-23T19:07:34.149Z,34.73
2019-03-23T19:10:02.828Z,35.33
2019-03-23T19:12:31.539Z,35.57
2019-03-23T19:15:00.381Z,35.50
2019-03-23T19:17:29.888Z,34.87
2019-03-23T19:19:58.489Z,36.17
2019-03-23T19:22:27.119Z,33.13
2019-03-23T19:24:55.850Z,33.83
2019-03-23T19:27:24.430Z,34.00
2019-03-23T19:29:53.098Z,33.70
2019-03-23T19:32:21.726Z,34.70
2019-03-23T19:34:50.354Z,33.37
2019-03-23T19:37:19.083Z,33.67
2019-03-23T19:39:47.684Z,34.30
2019-03-23T19:42:16.390Z,33.13
2019-03-23T19:44:45.081Z,33.40
2019-03-23T19:47:13.694Z,33.67
2019-03-23T19:49:42.313Z,33.63
2019-03-23T19:52:10.798Z,33.83
2019-03-23T19:54:39.357Z,34.10
2019-03-23T19:57:08.105Z,36.40
2019-03-23T19:59:36.692Z,34.17
2019-03-23T20:02:05.375Z,34.07
2019-03-23T20:04:34.026Z,34.00
2019-03-23T20:07:02.724Z,33.80
2019-03-23T20:09:40.339Z,34.83
2019-03-23T20:12:08.943Z,34.80
2019-03-23T20:14:37.504Z,32.07
2019-03-23T20:17:06.206Z,36.93
2019-03-23T20:19:35.023Z,38.57
2019-03-23T20:22:03.744Z,35.47
2019-03-23T20:24:34.483Z,35.00
2019-03-23T20:27:03.042Z,35.30
2019-03-23T20:29:31.589Z,34.07
2019-03-23T20:32:00.262Z,34.77
2019-03-23T20:34:28.895Z,35.33
2019-03-23T20:36:57.535Z,36.10
2019-03-23T20:39:26.258Z,35.63
2019-03-23T20:41:54.865Z,34.53
2019-03-23T20:44:23.658Z,35.00
2019-03-23T20:46:52.369Z,34.00
2019-03-23T20:49:21.386Z,36.53
2019-03-23T20:51:50.496Z,34.73
2019-03-23T20:54:19.746Z,36.00
2019-03-23T20:56:48.348Z,34.93
2019-03-23T20:59:17.421Z,36.17
2019-03-23T21:01:46.064Z,35.23
2019-03-23T21:04:14.661Z,36.27
2019-03-23T21:06:43.264Z,37.47
2019-03-23T21:09:11.834Z,36.60
2019-03-23T21:11:41.194Z,36.57
2019-03-23T21:14:19.645Z,34.43
2019-03-23T21:16:40.193Z,35.03
2019-03-23T21:19:08.828Z,36.00
2019-03-23T21:21:37.617Z,35.93
2019-03-23T21:24:06.365Z,36.10
2019-03-23T21:26:34.946Z,36.07
2019-03-23T21:29:03.621Z,36.90
2019-03-23T21:31:32.417Z,35.87
2019-03-23T21:34:01.173Z,34.83
2019-03-23T21:36:31.791Z,36.23
2019-03-23T21:39:00.289Z,35.47
2019-03-23T21:41:28.845Z,34.20
2019-03-23T21:43:57.386Z,34.23
2019-03-23T21:46:26.093Z,34.30
2019-03-23T21:48:54.640Z,34.23
2019-03-23T21:51:24.835Z,33.20
2019-03-23T21:53:53.433Z,32.40
2019-03-23T21:56:27.891Z,33.30
2019-03-23T21:58:56.527Z,33.53
2019-03-23T22:01:25.105Z,32.73
2019-03-23T22:03:53.995Z,31.77
2019-03-23T22:06:22.665Z,32.13
2019-03-23T22:08:51.274Z,32.73
2019-03-23T22:11:19.969Z,32.27
2019-03-23T22:13:48.619Z,35.03
2019-03-23T22:16:17.404Z,33.83
2019-03-23T22:18:45.957Z,32.60
2019-03-23T22:21:14.539Z,33.37
2019-03-23T22:23:43.216Z,31.57
2019-03-23T22:26:11.750Z,32.00
2019-03-23T22:28:40.367Z,31.90
2019-03-23T22:31:08.976Z,31.40
2019-03-23T22:33:37.521Z,30.87
2019-03-23T22:36:06.246Z,32.40
2019-03-23T22:38:34.793Z,32.33
2019-03-23T22:41:03.409Z,31.37
2019-03-23T22:43:32.023Z,30.93
2019-03-23T22:46:00.669Z,31.43
2019-03-23T22:48:29.227Z,30.70
2019-03-23T22:50:57.940Z,31.87
2019-03-23T22:53:26.465Z,31.03
2019-03-23T22:55:54.962Z,31.63
2019-03-23T22:58:23.672Z,32.00
2019-03-23T23:01:11.745Z,32.23
2019-03-23T23:03:40.583Z,32.47
2019-03-23T23:06:09.187Z,30.50
2019-03-23T23:08:37.837Z,28.80
2019-03-23T23:11:06.865Z,28.20
2019-03-23T23:13:36.590Z,29.63
2019-03-23T23:16:06.392Z,28.80
2019-03-23T23:18:35.872Z,29.43
2019-03-23T23:21:06.493Z,27.20
2019-03-23T23:23:36.053Z,27.07
2019-03-23T23:26:04.730Z,26.33
2019-03-23T23:28:34.709Z,27.77
2019-03-23T23:31:05.769Z,28.33
2019-03-23T23:33:34.655Z,26.87
2019-03-23T23:36:03.277Z,27.47
2019-03-23T23:38:31.849Z,26.60
2019-03-23T23:41:00.422Z,26.10
2019-03-23T23:43:29.154Z,26.50
2019-03-23T23:45:57.808Z,26.77
2019-03-23T23:48:26.451Z,27.20
2019-03-23T23:50:55.282Z,25.73
2019-03-23T23:53:23.841Z,25.73
2019-03-23T23:55:52.461Z,26.30
2019-03-23T23:58:21.089Z,26.03
